sensor_id;sensor_type;location;lat;lon;timestamp;P1;durP1;ratioP1;P2;durP2;ratioP2
60243;SDS011;46106;51.468;5.814;2024-01-15T00:05:26;46.72;;;16.73;;
60243;SDS011;46106;51.468;5.814;2024-01-15T00:07:52;43.75;;;18.08;;
60243;SDS011;46106;51.468;5.814;2024-01-15T00:10:18;43.88;;;17.98;;
60243;SDS011;46106;51.468;5.814;2024-01-15T00:12:43;51.78;;;18.35;;
60243;SDS011;46106;51.468;5.814;2024-01-15T00:15:09;47.25;;;18.27;;
60243;SDS011;46106;51.468;5.814;2024-01-15T00:17:34;42.28;;;17.35;;
60243;SDS011;46106;51.468;5.814;2024-01-15T00:19:59;47.58;;;17.38;;
60243;SDS011;46106;51.468;5.814;2024-01-15T00:22:25;43.58;;;16.23;;
60243;SDS011;46106;51.468;5.814;2024-01-15T00:24:52;44.13;;;16.95;;
60243;SDS011;46106;51.468;5.814;2024-01-15T00:27:17;39.67;;;16.15;;
60243;SDS011;46106;51.468;5.814;2024-01-15T00:29:43;52.72;;;18.30;;
60243;SDS011;46106;51.468;5.814;2024-01-15T00:32:08;38.33;;;15.48;;
60243;SDS011;46106;51.468;5.814;2024-01-15T00:34:34;48.67;;;19.05;;
60243;SDS011;46106;51.468;5.814;2024-01-15T00:54:08;38.10;;;14.98;;
60243;SDS011;46106;51.468;5.814;2024-01-15T00:56:34;36.22;;;15.30;;
60243;SDS011;46106;51.468;5.814;2024-01-15T00:59:00;35.65;;;14.35;;
60243;SDS011;46106;51.468;5.814;2024-01-15T01:01:25;36.35;;;14.90;;
60243;SDS011;46106;51.468;5.814;2024-01-15T01:03:51;40.45;;;15.10;;
60243;SDS011;46106;51.468;5.814;2024-01-15T01:06:17;39.45;;;15.45;;
60243;SDS011;46106;51.468;5.814;2024-01-15T01:08:44;36.67;;;13.93;;
60243;SDS011;46106;51.468;5.814;2024-01-15T01:11:14;39.60;;;15.23;;
60243;SDS011;46106;51.468;5.814;2024-01-15T01:13:41;34.38;;;13.93;;
60243;SDS011;46106;51.468;5.814;2024-01-15T01:16:08;30.17;;;13.90;;
60243;SDS011;46106;51.468;5.814;2024-01-15T01:18:33;36.08;;;13.20;;
60243;SDS011;46106;51.468;5.814;2024-01-15T01:20:58;30.42;;;11.68;;
60243;SDS011;46106;51.468;5.814;2024-01-15T01:23:24;29.70;;;11.00;;
60243;SDS011;46106;51.468;5.814;2024-01-15T01:25:49;25.17;;;10.30;;
60243;SDS011;46106;51.468;5.814;2024-01-15T01:28:16;28.65;;;10.02;;
60243;SDS011;46106;51.468;5.814;2024-01-15T01:30:41;21.33;;;8.00;;
60243;SDS011;46106;51.468;5.814;2024-01-15T01:33:07;24.98;;;8.95;;
60243;SDS011;46106;51.468;5.814;2024-01-15T01:35:33;16.17;;;7.55;;
60243;SDS011;46106;51.468;5.814;2024-01-15T01:37:59;19.20;;;7.05;;
60243;SDS011;46106;51.468;5.814;2024-01-15T01:40:24;20.33;;;7.35;;
60243;SDS011;46106;51.468;5.814;2024-01-15T01:42:51;15.40;;;6.30;;
60243;SDS011;46106;51.468;5.814;2024-01-15T01:45:16;11.20;;;5.20;;
60243;SDS011;46106;51.468;5.814;2024-01-15T01:47:43;16.67;;;4.63;;
60243;SDS011;46106;51.468;5.814;2024-01-15T01:50:09;9.35;;;4.35;;
60243;SDS011;46106;51.468;5.814;2024-01-15T01:52:34;10.63;;;3.85;;
60243;SDS011;46106;51.468;5.814;2024-01-15T01:55:02;12.70;;;4.18;;
60243;SDS011;46106;51.468;5.814;2024-01-15T01:57:29;10.88;;;2.80;;
60243;SDS011;46106;51.468;5.814;2024-01-15T01:59:56;10.60;;;3.88;;
60243;SDS011;46106;51.468;5.814;2024-01-15T02:02:23;9.65;;;3.55;;
60243;SDS011;46106;51.468;5.814;2024-01-15T02:04:49;8.95;;;3.92;;
60243;SDS011;46106;51.468;5.814;2024-01-15T02:07:15;9.07;;;3.53;;
60243;SDS011;46106;51.468;5.814;2024-01-15T02:09:42;8.73;;;3.33;;
60243;SDS011;46106;51.468;5.814;2024-01-15T02:12:11;10.75;;;4.18;;
60243;SDS011;46106;51.468;5.814;2024-01-15T02:14:39;11.05;;;3.83;;
60243;SDS011;46106;51.468;5.814;2024-01-15T02:17:06;11.30;;;4.35;;
60243;SDS011;46106;51.468;5.814;2024-01-15T02:19:31;9.93;;;4.00;;
60243;SDS011;46106;51.468;5.814;2024-01-15T02:21:57;9.05;;;4.05;;
60243;SDS011;46106;51.468;5.814;2024-01-15T02:24:23;8.00;;;5.05;;
60243;SDS011;46106;51.468;5.814;2024-01-15T02:26:48;12.68;;;4.95;;
60243;SDS011;46106;51.468;5.814;2024-01-15T02:29:14;12.15;;;5.07;;
60243;SDS011;46106;51.468;5.814;2024-01-15T02:31:42;12.15;;;4.63;;
60243;SDS011;46106;51.468;5.814;2024-01-15T02:34:08;8.80;;;5.05;;
60243;SDS011;46106;51.468;5.814;2024-01-15T02:36:34;10.52;;;4.88;;
60243;SDS011;46106;51.468;5.814;2024-01-15T02:39:00;17.85;;;5.95;;
60243;SDS011;46106;51.468;5.814;2024-01-15T02:41:25;12.15;;;5.80;;
60243;SDS011;46106;51.468;5.814;2024-01-15T02:43:50;14.20;;;6.00;;
60243;SDS011;46106;51.468;5.814;2024-01-15T02:46:16;18.85;;;6.10;;
60243;SDS011;46106;51.468;5.814;2024-01-15T02:48:42;19.02;;;6.55;;
60243;SDS011;46106;51.468;5.814;2024-01-15T02:51:07;13.43;;;6.35;;
60243;SDS011;46106;51.468;5.814;2024-01-15T02:53:35;11.90;;;5.90;;
60243;SDS011;46106;51.468;5.814;2024-01-15T02:56:01;13.70;;;6.55;;
60243;SDS011;46106;51.468;5.814;2024-01-15T02:58:26;20.60;;;6.75;;
60243;SDS011;46106;51.468;5.814;2024-01-15T03:00:53;11.60;;;6.35;;
60243;SDS011;46106;51.468;5.814;2024-01-15T03:03:18;21.73;;;6.35;;
60243;SDS011;46106;51.468;5.814;2024-01-15T03:05:44;16.83;;;5.75;;
60243;SDS011;46106;51.468;5.814;2024-01-15T03:08:09;13.77;;;6.03;;
60243;SDS011;46106;51.468;5.814;2024-01-15T03:10:35;13.05;;;6.22;;
60243;SDS011;46106;51.468;5.814;2024-01-15T03:13:00;11.98;;;5.32;;
60243;SDS011;46106;51.468;5.814;2024-01-15T03:15:26;16.20;;;5.88;;
60243;SDS011;46106;51.468;5.814;2024-01-15T03:17:51;13.45;;;6.15;;
60243;SDS011;46106;51.468;5.814;2024-01-15T03:20:16;12.98;;;4.93;;
60243;SDS011;46106;51.468;5.814;2024-01-15T03:22:42;12.85;;;4.47;;
60243;SDS011;46106;51.468;5.814;2024-01-15T03:25:08;12.65;;;4.97;;
60243;SDS011;46106;51.468;5.814;2024-01-15T03:27:33;13.02;;;4.60;;
60243;SDS011;46106;51.468;5.814;2024-01-15T03:29:59;11.23;;;4.72;;
60243;SDS011;46106;51.468;5.814;2024-01-15T03:32:24;9.73;;;3.67;;
60243;SDS011;46106;51.468;5.814;2024-01-15T03:34:50;10.50;;;4.20;;
60243;SDS011;46106;51.468;5.814;2024-01-15T03:37:17;12.13;;;3.95;;
60243;SDS011;46106;51.468;5.814;2024-01-15T03:39:43;8.38;;;3.42;;
60243;SDS011;46106;51.468;5.814;2024-01-15T03:42:08;6.70;;;3.30;;
60243;SDS011;46106;51.468;5.814;2024-01-15T03:44:34;5.75;;;3.08;;
60243;SDS011;46106;51.468;5.814;2024-01-15T03:46:59;6.88;;;3.25;;
60243;SDS011;46106;51.468;5.814;2024-01-15T03:49:25;8.75;;;3.42;;
60243;SDS011;46106;51.468;5.814;2024-01-15T03:51:51;9.07;;;3.17;;
60243;SDS011;46106;51.468;5.814;2024-01-15T03:54:16;8.43;;;3.55;;
60243;SDS011;46106;51.468;5.814;2024-01-15T03:56:43;8.00;;;3.10;;
60243;SDS011;46106;51.468;5.814;2024-01-15T03:59:08;9.73;;;2.78;;
60243;SDS011;46106;51.468;5.814;2024-01-15T04:01:35;7.60;;;3.67;;
60243;SDS011;46106;51.468;5.814;2024-01-15T04:04:01;6.00;;;3.42;;
60243;SDS011;46106;51.468;5.814;2024-01-15T04:06:27;7.15;;;3.55;;
60243;SDS011;46106;51.468;5.814;2024-01-15T04:08:53;5.72;;;3.63;;
60243;SDS011;46106;51.468;5.814;2024-01-15T04:11:18;8.57;;;3.78;;
60243;SDS011;46106;51.468;5.814;2024-01-15T04:13:44;9.45;;;3.92;;
60243;SDS011;46106;51.468;5.814;2024-01-15T04:16:09;7.88;;;3.63;;
60243;SDS011;46106;51.468;5.814;2024-01-15T04:18:35;14.15;;;4.78;;
60243;SDS011;46106;51.468;5.814;2024-01-15T04:21:00;15.80;;;3.97;;
60243;SDS011;46106;51.468;5.814;2024-01-15T04:23:26;11.60;;;4.50;;
60243;SDS011;46106;51.468;5.814;2024-01-15T04:25:51;7.20;;;4.15;;
60243;SDS011;46106;51.468;5.814;2024-01-15T04:28:17;11.63;;;3.85;;
60243;SDS011;46106;51.468;5.814;2024-01-15T04:30:42;10.55;;;4.05;;
60243;SDS011;46106;51.468;5.814;2024-01-15T04:33:08;7.22;;;2.85;;
60243;SDS011;46106;51.468;5.814;2024-01-15T04:35:33;5.78;;;3.33;;
60243;SDS011;46106;51.468;5.814;2024-01-15T04:37:59;11.98;;;2.95;;
60243;SDS011;46106;51.468;5.814;2024-01-15T04:40:24;7.10;;;2.92;;
60243;SDS011;46106;51.468;5.814;2024-01-15T04:42:52;10.73;;;2.58;;
60243;SDS011;46106;51.468;5.814;2024-01-15T04:45:18;4.22;;;1.88;;
60243;SDS011;46106;51.468;5.814;2024-01-15T04:47:44;6.32;;;1.98;;
60243;SDS011;46106;51.468;5.814;2024-01-15T04:50:10;5.78;;;2.05;;
60243;SDS011;46106;51.468;5.814;2024-01-15T04:52:35;5.28;;;1.65;;
60243;SDS011;46106;51.468;5.814;2024-01-15T04:55:00;8.00;;;1.55;;
60243;SDS011;46106;51.468;5.814;2024-01-15T04:57:26;3.70;;;1.40;;
60243;SDS011;46106;51.468;5.814;2024-01-15T04:59:51;2.80;;;1.25;;
60243;SDS011;46106;51.468;5.814;2024-01-15T05:02:17;5.82;;;1.40;;
60243;SDS011;46106;51.468;5.814;2024-01-15T05:04:42;8.07;;;1.42;;
60243;SDS011;46106;51.468;5.814;2024-01-15T05:07:07;9.35;;;1.80;;
60243;SDS011;46106;51.468;5.814;2024-01-15T05:09:33;11.25;;;1.30;;
60243;SDS011;46106;51.468;5.814;2024-01-15T05:11:58;2.50;;;0.95;;
60243;SDS011;46106;51.468;5.814;2024-01-15T05:14:24;2.33;;;0.60;;
60243;SDS011;46106;51.468;5.814;2024-01-15T05:16:49;6.10;;;0.98;;
60243;SDS011;46106;51.468;5.814;2024-01-15T05:19:16;9.25;;;0.82;;
60243;SDS011;46106;51.468;5.814;2024-01-15T05:21:41;8.05;;;0.98;;
60243;SDS011;46106;51.468;5.814;2024-01-15T05:24:07;4.70;;;0.88;;
60243;SDS011;46106;51.468;5.814;2024-01-15T05:26:33;2.88;;;0.80;;
60243;SDS011;46106;51.468;5.814;2024-01-15T05:28:58;3.90;;;0.60;;
60243;SDS011;46106;51.468;5.814;2024-01-15T05:31:24;1.65;;;0.60;;
60243;SDS011;46106;51.468;5.814;2024-01-15T05:33:50;2.80;;;0.40;;
60243;SDS011;46106;51.468;5.814;2024-01-15T05:36:15;1.67;;;0.47;;
60243;SDS011;46106;51.468;5.814;2024-01-15T05:38:40;3.15;;;0.60;;
60243;SDS011;46106;51.468;5.814;2024-01-15T05:41:06;1.40;;;0.55;;
60243;SDS011;46106;51.468;5.814;2024-01-15T05:43:32;1.85;;;0.60;;
60243;SDS011;46106;51.468;5.814;2024-01-15T05:45:57;3.72;;;0.60;;
60243;SDS011;46106;51.468;5.814;2024-01-15T05:48:23;1.70;;;0.50;;
60243;SDS011;46106;51.468;5.814;2024-01-15T05:50:48;1.95;;;0.50;;
60243;SDS011;46106;51.468;5.814;2024-01-15T05:53:14;4.22;;;0.70;;
60243;SDS011;46106;51.468;5.814;2024-01-15T05:55:39;1.10;;;0.30;;
60243;SDS011;46106;51.468;5.814;2024-01-15T05:58:05;2.53;;;0.60;;
60243;SDS011;46106;51.468;5.814;2024-01-15T06:00:31;2.28;;;0.63;;
60243;SDS011;46106;51.468;5.814;2024-01-15T06:02:58;1.48;;;0.70;;
60243;SDS011;46106;51.468;5.814;2024-01-15T06:05:25;1.92;;;0.70;;
60243;SDS011;46106;51.468;5.814;2024-01-15T06:07:50;3.97;;;0.82;;
60243;SDS011;46106;51.468;5.814;2024-01-15T06:10:16;1.05;;;0.70;;
60243;SDS011;46106;51.468;5.814;2024-01-15T06:12:42;4.47;;;1.00;;
60243;SDS011;46106;51.468;5.814;2024-01-15T06:15:09;2.35;;;0.80;;
60243;SDS011;46106;51.468;5.814;2024-01-15T06:17:36;3.15;;;1.02;;
60243;SDS011;46106;51.468;5.814;2024-01-15T06:20:02;1.90;;;1.10;;
60243;SDS011;46106;51.468;5.814;2024-01-15T06:22:28;4.68;;;1.00;;
60243;SDS011;46106;51.468;5.814;2024-01-15T06:24:53;4.38;;;1.30;;
60243;SDS011;46106;51.468;5.814;2024-01-15T06:27:20;5.88;;;1.98;;
60243;SDS011;46106;51.468;5.814;2024-01-15T06:29:46;5.85;;;1.88;;
60243;SDS011;46106;51.468;5.814;2024-01-15T06:32:14;5.07;;;2.30;;
60243;SDS011;46106;51.468;5.814;2024-01-15T06:34:40;4.07;;;2.70;;
60243;SDS011;46106;51.468;5.814;2024-01-15T06:37:05;6.32;;;3.45;;
60243;SDS011;46106;51.468;5.814;2024-01-15T06:39:31;11.82;;;3.75;;
60243;SDS011;46106;51.468;5.814;2024-01-15T06:41:56;13.50;;;4.50;;
60243;SDS011;46106;51.468;5.814;2024-01-15T06:44:22;9.50;;;4.45;;
60243;SDS011;46106;51.468;5.814;2024-01-15T06:46:47;7.65;;;4.60;;
60243;SDS011;46106;51.468;5.814;2024-01-15T06:49:13;8.40;;;4.75;;
60243;SDS011;46106;51.468;5.814;2024-01-15T06:51:39;12.80;;;5.68;;
60243;SDS011;46106;51.468;5.814;2024-01-15T06:54:04;6.70;;;4.45;;
60243;SDS011;46106;51.468;5.814;2024-01-15T06:56:30;8.88;;;4.22;;
60243;SDS011;46106;51.468;5.814;2024-01-15T06:58:56;12.50;;;4.47;;
60243;SDS011;46106;51.468;5.814;2024-01-15T07:01:22;9.95;;;4.35;;
60243;SDS011;46106;51.468;5.814;2024-01-15T07:03:47;13.18;;;4.00;;
60243;SDS011;46106;51.468;5.814;2024-01-15T07:06:13;6.65;;;3.28;;
60243;SDS011;46106;51.468;5.814;2024-01-15T07:08:39;6.00;;;2.90;;
60243;SDS011;46106;51.468;5.814;2024-01-15T07:11:05;5.88;;;2.70;;
60243;SDS011;46106;51.468;5.814;2024-01-15T07:13:31;4.47;;;2.30;;
60243;SDS011;46106;51.468;5.814;2024-01-15T07:15:57;12.90;;;2.92;;
60243;SDS011;46106;51.468;5.814;2024-01-15T07:18:22;4.95;;;3.22;;
60243;SDS011;46106;51.468;5.814;2024-01-15T07:20:50;7.63;;;3.50;;
60243;SDS011;46106;51.468;5.814;2024-01-15T07:23:16;7.72;;;3.35;;
60243;SDS011;46106;51.468;5.814;2024-01-15T07:25:42;9.98;;;3.85;;
60243;SDS011;46106;51.468;5.814;2024-01-15T07:28:07;6.15;;;3.65;;
60243;SDS011;46106;51.468;5.814;2024-01-15T07:30:33;5.43;;;3.38;;
60243;SDS011;46106;51.468;5.814;2024-01-15T07:32:58;11.30;;;4.20;;
60243;SDS011;46106;51.468;5.814;2024-01-15T07:35:24;6.45;;;3.88;;
60243;SDS011;46106;51.468;5.814;2024-01-15T07:37:50;5.32;;;3.85;;
60243;SDS011;46106;51.468;5.814;2024-01-15T07:40:15;5.13;;;4.07;;
60243;SDS011;46106;51.468;5.814;2024-01-15T07:42:41;5.25;;;4.25;;
60243;SDS011;46106;51.468;5.814;2024-01-15T07:45:08;6.78;;;4.35;;
60243;SDS011;46106;51.468;5.814;2024-01-15T07:47:34;6.57;;;4.10;;
60243;SDS011;46106;51.468;5.814;2024-01-15T07:49:59;5.60;;;4.25;;
60243;SDS011;46106;51.468;5.814;2024-01-15T07:52:25;6.60;;;3.75;;
60243;SDS011;46106;51.468;5.814;2024-01-15T07:54:50;4.97;;;3.90;;
60243;SDS011;46106;51.468;5.814;2024-01-15T07:57:15;4.07;;;3.45;;
60243;SDS011;46106;51.468;5.814;2024-01-15T07:59:41;6.28;;;3.88;;
60243;SDS011;46106;51.468;5.814;2024-01-15T08:02:06;4.72;;;3.72;;
60243;SDS011;46106;51.468;5.814;2024-01-15T08:04:33;4.38;;;3.35;;
60243;SDS011;46106;51.468;5.814;2024-01-15T08:06:58;4.10;;;3.08;;
60243;SDS011;46106;51.468;5.814;2024-01-15T08:09:24;4.13;;;2.90;;
60243;SDS011;46106;51.468;5.814;2024-01-15T08:11:49;5.88;;;2.70;;
60243;SDS011;46106;51.468;5.814;2024-01-15T08:14:15;4.28;;;2.65;;
60243;SDS011;46106;51.468;5.814;2024-01-15T08:16:42;2.63;;;2.35;;
60243;SDS011;46106;51.468;5.814;2024-01-15T08:19:09;4.88;;;2.92;;
60243;SDS011;46106;51.468;5.814;2024-01-15T08:21:34;4.53;;;3.38;;
60243;SDS011;46106;51.468;5.814;2024-01-15T08:24:00;3.60;;;2.60;;
60243;SDS011;46106;51.468;5.814;2024-01-15T08:26:27;3.72;;;2.80;;
60243;SDS011;46106;51.468;5.814;2024-01-15T08:28:54;5.93;;;3.42;;
60243;SDS011;46106;51.468;5.814;2024-01-15T08:31:20;3.15;;;2.78;;
60243;SDS011;46106;51.468;5.814;2024-01-15T08:33:46;4.60;;;3.30;;
60243;SDS011;46106;51.468;5.814;2024-01-15T08:36:12;6.72;;;4.10;;
60243;SDS011;46106;51.468;5.814;2024-01-15T08:38:38;4.93;;;3.90;;
60243;SDS011;46106;51.468;5.814;2024-01-15T08:41:04;4.55;;;4.10;;
60243;SDS011;46106;51.468;5.814;2024-01-15T08:43:29;4.35;;;3.90;;
60243;SDS011;46106;51.468;5.814;2024-01-15T08:45:57;6.72;;;4.53;;
60243;SDS011;46106;51.468;5.814;2024-01-15T08:48:24;5.35;;;4.60;;
60243;SDS011;46106;51.468;5.814;2024-01-15T08:50:52;5.07;;;4.38;;
60243;SDS011;46106;51.468;5.814;2024-01-15T08:53:18;6.68;;;4.53;;
60243;SDS011;46106;51.468;5.814;2024-01-15T08:55:43;4.82;;;4.30;;
60243;SDS011;46106;51.468;5.814;2024-01-15T08:58:09;5.43;;;4.00;;
60243;SDS011;46106;51.468;5.814;2024-01-15T09:00:35;5.78;;;4.13;;
60243;SDS011;46106;51.468;5.814;2024-01-15T09:03:00;5.65;;;3.80;;
60243;SDS011;46106;51.468;5.814;2024-01-15T09:05:26;7.10;;;4.53;;
60243;SDS011;46106;51.468;5.814;2024-01-15T09:07:51;4.82;;;4.43;;
60243;SDS011;46106;51.468;5.814;2024-01-15T09:10:18;5.03;;;4.53;;
60243;SDS011;46106;51.468;5.814;2024-01-15T09:12:45;6.28;;;4.38;;
60243;SDS011;46106;51.468;5.814;2024-01-15T09:15:11;5.97;;;4.95;;
60243;SDS011;46106;51.468;5.814;2024-01-15T09:17:37;7.13;;;5.10;;
60243;SDS011;46106;51.468;5.814;2024-01-15T09:20:02;5.20;;;4.20;;
60243;SDS011;46106;51.468;5.814;2024-01-15T09:22:30;4.93;;;4.40;;
60243;SDS011;46106;51.468;5.814;2024-01-15T09:24:56;6.35;;;4.78;;
60243;SDS011;46106;51.468;5.814;2024-01-15T09:27:22;3.88;;;3.55;;
60243;SDS011;46106;51.468;5.814;2024-01-15T09:29:51;7.05;;;4.45;;
60243;SDS011;46106;51.468;5.814;2024-01-15T09:32:17;5.35;;;4.70;;
60243;SDS011;46106;51.468;5.814;2024-01-15T09:34:44;6.70;;;4.10;;
60243;SDS011;46106;51.468;5.814;2024-01-15T09:37:11;4.35;;;3.95;;
60243;SDS011;46106;51.468;5.814;2024-01-15T09:39:38;5.40;;;3.75;;
60243;SDS011;46106;51.468;5.814;2024-01-15T09:42:03;6.82;;;4.20;;
60243;SDS011;46106;51.468;5.814;2024-01-15T09:44:30;4.90;;;3.42;;
60243;SDS011;46106;51.468;5.814;2024-01-15T09:46:56;6.30;;;3.08;;
60243;SDS011;46106;51.468;5.814;2024-01-15T09:49:22;4.28;;;2.58;;
60243;SDS011;46106;51.468;5.814;2024-01-15T09:51:48;6.10;;;2.65;;
60243;SDS011;46106;51.468;5.814;2024-01-15T09:54:15;6.75;;;2.25;;
60243;SDS011;46106;51.468;5.814;2024-01-15T09:56:42;3.90;;;2.13;;
60243;SDS011;46106;51.468;5.814;2024-01-15T09:59:13;5.15;;;2.22;;
60243;SDS011;46106;51.468;5.814;2024-01-15T10:01:41;4.82;;;1.50;;
60243;SDS011;46106;51.468;5.814;2024-01-15T10:04:08;3.10;;;1.10;;
60243;SDS011;46106;51.468;5.814;2024-01-15T10:06:34;5.50;;;0.88;;
60243;SDS011;46106;51.468;5.814;2024-01-15T10:09:00;2.55;;;0.70;;
60243;SDS011;46106;51.468;5.814;2024-01-15T10:11:26;1.67;;;0.60;;
60243;SDS011;46106;51.468;5.814;2024-01-15T10:13:52;3.42;;;0.65;;
60243;SDS011;46106;51.468;5.814;2024-01-15T10:16:18;0.80;;;0.50;;
60243;SDS011;46106;51.468;5.814;2024-01-15T10:18:44;2.58;;;0.60;;
60243;SDS011;46106;51.468;5.814;2024-01-15T10:21:10;1.70;;;0.70;;
60243;SDS011;46106;51.468;5.814;2024-01-15T10:23:35;4.43;;;0.70;;
60243;SDS011;46106;51.468;5.814;2024-01-15T10:26:03;2.20;;;0.30;;
60243;SDS011;46106;51.468;5.814;2024-01-15T10:28:30;3.97;;;0.70;;
60243;SDS011;46106;51.468;5.814;2024-01-15T10:30:57;0.90;;;0.60;;
60243;SDS011;46106;51.468;5.814;2024-01-15T10:33:26;2.50;;;0.50;;
60243;SDS011;46106;51.468;5.814;2024-01-15T10:35:56;3.83;;;0.60;;
60243;SDS011;46106;51.468;5.814;2024-01-15T10:38:24;4.43;;;0.60;;
60243;SDS011;46106;51.468;5.814;2024-01-15T10:40:53;4.88;;;0.82;;
60243;SDS011;46106;51.468;5.814;2024-01-15T10:43:20;3.92;;;0.88;;
60243;SDS011;46106;51.468;5.814;2024-01-15T10:45:46;3.47;;;0.57;;
60243;SDS011;46106;51.468;5.814;2024-01-15T10:48:12;3.22;;;0.60;;
60243;SDS011;46106;51.468;5.814;2024-01-15T10:50:38;3.00;;;0.85;;
60243;SDS011;46106;51.468;5.814;2024-01-15T10:53:04;3.05;;;0.63;;
60243;SDS011;46106;51.468;5.814;2024-01-15T10:55:31;2.63;;;0.60;;
60243;SDS011;46106;51.468;5.814;2024-01-15T10:57:58;4.45;;;0.90;;
60243;SDS011;46106;51.468;5.814;2024-01-15T11:00:25;2.85;;;0.77;;
60243;SDS011;46106;51.468;5.814;2024-01-15T11:02:51;6.03;;;1.00;;
60243;SDS011;46106;51.468;5.814;2024-01-15T11:05:20;2.90;;;1.20;;
60243;SDS011;46106;51.468;5.814;2024-01-15T11:07:47;2.53;;;1.00;;
60243;SDS011;46106;51.468;5.814;2024-01-15T11:13:08;1.63;;;1.13;;
60243;SDS011;46106;51.468;5.814;2024-01-15T11:15:57;2.22;;;1.20;;
60243;SDS011;46106;51.468;5.814;2024-01-15T11:19:01;3.47;;;1.25;;
60243;SDS011;46106;51.468;5.814;2024-01-15T11:21:23;3.90;;;1.45;;
60243;SDS011;46106;51.468;5.814;2024-01-15T11:26:37;1.55;;;1.38;;
60243;SDS011;46106;51.468;5.814;2024-01-15T11:31:59;2.28;;;1.27;;
60243;SDS011;46106;51.468;5.814;2024-01-15T11:37:22;3.25;;;1.38;;
60243;SDS011;46106;51.468;5.814;2024-01-15T11:39:49;4.40;;;1.42;;
60243;SDS011;46106;51.468;5.814;2024-01-15T11:42:18;5.93;;;1.48;;
60243;SDS011;46106;51.468;5.814;2024-01-15T11:44:45;2.95;;;1.30;;
60243;SDS011;46106;51.468;5.814;2024-01-15T11:47:15;4.13;;;1.48;;
60243;SDS011;46106;51.468;5.814;2024-01-15T11:50:00;7.65;;;1.67;;
60243;SDS011;46106;51.468;5.814;2024-01-15T11:52:47;2.17;;;1.40;;
60243;SDS011;46106;51.468;5.814;2024-01-15T11:57:55;4.32;;;1.40;;
60243;SDS011;46106;51.468;5.814;2024-01-15T12:00:25;2.67;;;1.02;;
60243;SDS011;46106;51.468;5.814;2024-01-15T12:02:52;6.10;;;1.20;;
60243;SDS011;46106;51.468;5.814;2024-01-15T12:05:18;9.02;;;1.70;;
60243;SDS011;46106;51.468;5.814;2024-01-15T12:07:45;1.58;;;1.05;;
60243;SDS011;46106;51.468;5.814;2024-01-15T12:10:13;2.17;;;1.10;;
60243;SDS011;46106;51.468;5.814;2024-01-15T12:15:28;3.53;;;0.98;;
60243;SDS011;46106;51.468;5.814;2024-01-15T12:17:55;2.25;;;0.90;;
60243;SDS011;46106;51.468;5.814;2024-01-15T12:20:26;1.55;;;0.70;;
60243;SDS011;46106;51.468;5.814;2024-01-15T12:22:52;2.25;;;0.70;;
60243;SDS011;46106;51.468;5.814;2024-01-15T12:25:18;1.02;;;0.60;;
60243;SDS011;46106;51.468;5.814;2024-01-15T12:27:44;1.85;;;0.98;;
60243;SDS011;46106;51.468;5.814;2024-01-15T12:30:11;3.13;;;1.08;;
60243;SDS011;46106;51.468;5.814;2024-01-15T12:32:40;1.15;;;0.60;;
60243;SDS011;46106;51.468;5.814;2024-01-15T12:35:07;2.40;;;0.63;;
60243;SDS011;46106;51.468;5.814;2024-01-15T12:37:37;0.90;;;0.60;;
60243;SDS011;46106;51.468;5.814;2024-01-15T12:40:04;0.63;;;0.45;;
60243;SDS011;46106;51.468;5.814;2024-01-15T12:42:32;0.40;;;0.40;;
60243;SDS011;46106;51.468;5.814;2024-01-15T12:44:59;1.35;;;0.50;;
60243;SDS011;46106;51.468;5.814;2024-01-15T12:47:25;1.33;;;0.63;;
60243;SDS011;46106;51.468;5.814;2024-01-15T12:49:52;1.67;;;0.60;;
60243;SDS011;46106;51.468;5.814;2024-01-15T12:52:20;0.70;;;0.60;;
60243;SDS011;46106;51.468;5.814;2024-01-15T12:54:47;1.08;;;0.70;;
60243;SDS011;46106;51.468;5.814;2024-01-15T12:57:16;0.93;;;0.80;;
60243;SDS011;46106;51.468;5.814;2024-01-15T12:59:43;1.65;;;0.90;;
60243;SDS011;46106;51.468;5.814;2024-01-15T13:02:10;1.77;;;0.90;;
60243;SDS011;46106;51.468;5.814;2024-01-15T13:04:36;1.10;;;1.00;;
60243;SDS011;46106;51.468;5.814;2024-01-15T13:07:02;1.95;;;0.90;;
60243;SDS011;46106;51.468;5.814;2024-01-15T13:09:27;1.38;;;1.27;;
60243;SDS011;46106;51.468;5.814;2024-01-15T13:11:54;1.55;;;1.10;;
60243;SDS011;46106;51.468;5.814;2024-01-15T13:14:21;4.18;;;1.83;;
60243;SDS011;46106;51.468;5.814;2024-01-15T13:16:47;2.40;;;1.40;;
60243;SDS011;46106;51.468;5.814;2024-01-15T13:19:14;1.50;;;1.40;;
60243;SDS011;46106;51.468;5.814;2024-01-15T13:21:42;2.55;;;1.30;;
60243;SDS011;46106;51.468;5.814;2024-01-15T13:24:08;3.38;;;1.67;;
60243;SDS011;46106;51.468;5.814;2024-01-15T13:26:34;1.63;;;1.52;;
60243;SDS011;46106;51.468;5.814;2024-01-15T13:29:03;1.67;;;1.58;;
60243;SDS011;46106;51.468;5.814;2024-01-15T13:31:32;3.95;;;1.70;;
60243;SDS011;46106;51.468;5.814;2024-01-15T13:33:58;1.75;;;1.65;;
60243;SDS011;46106;51.468;5.814;2024-01-15T13:36:24;1.77;;;1.60;;
60243;SDS011;46106;51.468;5.814;2024-01-15T13:38:50;2.00;;;1.50;;
60243;SDS011;46106;51.468;5.814;2024-01-15T13:41:18;1.30;;;1.20;;
60243;SDS011;46106;51.468;5.814;2024-01-15T13:43:53;1.60;;;1.50;;
60243;SDS011;46106;51.468;5.814;2024-01-15T13:46:23;2.20;;;1.70;;
60243;SDS011;46106;51.468;5.814;2024-01-15T13:48:51;2.38;;;1.58;;
60243;SDS011;46106;51.468;5.814;2024-01-15T13:51:17;3.95;;;1.50;;
60243;SDS011;46106;51.468;5.814;2024-01-15T13:53:43;2.38;;;1.40;;
60243;SDS011;46106;51.468;5.814;2024-01-15T13:56:08;2.75;;;1.48;;
60243;SDS011;46106;51.468;5.814;2024-01-15T13:58:36;2.53;;;1.45;;
60243;SDS011;46106;51.468;5.814;2024-01-15T14:01:02;1.90;;;1.55;;
60243;SDS011;46106;51.468;5.814;2024-01-15T14:03:31;1.77;;;1.60;;
60243;SDS011;46106;51.468;5.814;2024-01-15T14:05:58;1.80;;;1.70;;
60243;SDS011;46106;51.468;5.814;2024-01-15T14:08:24;1.30;;;1.20;;
60243;SDS011;46106;51.468;5.814;2024-01-15T14:10:50;1.90;;;1.42;;
60243;SDS011;46106;51.468;5.814;2024-01-15T14:13:17;2.15;;;1.45;;
60243;SDS011;46106;51.468;5.814;2024-01-15T14:15:42;1.90;;;0.93;;
60243;SDS011;46106;51.468;5.814;2024-01-15T14:18:07;1.30;;;1.20;;
60243;SDS011;46106;51.468;5.814;2024-01-15T14:20:33;1.80;;;1.08;;
60243;SDS011;46106;51.468;5.814;2024-01-15T14:22:58;1.83;;;1.00;;
60243;SDS011;46106;51.468;5.814;2024-01-15T14:25:24;4.20;;;1.35;;
60243;SDS011;46106;51.468;5.814;2024-01-15T14:27:49;4.82;;;1.17;;
60243;SDS011;46106;51.468;5.814;2024-01-15T14:30:16;2.67;;;1.00;;
60243;SDS011;46106;51.468;5.814;2024-01-15T14:32:42;1.63;;;1.30;;
60243;SDS011;46106;51.468;5.814;2024-01-15T14:35:08;1.77;;;1.40;;
60243;SDS011;46106;51.468;5.814;2024-01-15T14:37:37;3.90;;;1.45;;
60243;SDS011;46106;51.468;5.814;2024-01-15T14:40:03;6.00;;;1.80;;
60243;SDS011;46106;51.468;5.814;2024-01-15T14:42:31;1.58;;;1.40;;
60243;SDS011;46106;51.468;5.814;2024-01-15T14:44:57;3.28;;;1.70;;
60243;SDS011;46106;51.468;5.814;2024-01-15T14:47:22;1.85;;;1.75;;
60243;SDS011;46106;51.468;5.814;2024-01-15T14:49:49;2.13;;;1.70;;
60243;SDS011;46106;51.468;5.814;2024-01-15T14:52:15;3.45;;;1.50;;
60243;SDS011;46106;51.468;5.814;2024-01-15T14:54:40;3.08;;;1.35;;
60243;SDS011;46106;51.468;5.814;2024-01-15T14:57:06;3.33;;;1.73;;
60243;SDS011;46106;51.468;5.814;2024-01-15T14:59:32;4.28;;;1.70;;
60243;SDS011;46106;51.468;5.814;2024-01-15T15:01:57;2.45;;;1.85;;
60243;SDS011;46106;51.468;5.814;2024-01-15T15:04:23;4.22;;;1.67;;
60243;SDS011;46106;51.468;5.814;2024-01-15T15:06:51;6.03;;;1.95;;
60243;SDS011;46106;51.468;5.814;2024-01-15T15:09:16;4.57;;;1.90;;
60243;SDS011;46106;51.468;5.814;2024-01-15T15:11:42;5.80;;;2.00;;
60243;SDS011;46106;51.468;5.814;2024-01-15T15:14:07;4.70;;;2.45;;
60243;SDS011;46106;51.468;5.814;2024-01-15T15:16:33;3.90;;;2.00;;